Map

Track Data

SID SEASON NUMBER BASIN SUBBASIN NAME ISO_TIME NATURE LAT LON WMO_WIND WMO_PRES WMO_AGENCY TRACK_TYPE DIST2LAND LANDFALL IFLAG USA_AGENCY USA_ATCF_ID USA_LAT USA_LON USA_RECORD USA_STATUS USA_WIND USA_PRES USA_SSHS USA_R34_NE USA_R34_SE USA_R34_SW USA_R34_NW USA_R50_NE USA_R50_SE USA_R50_SW USA_R50_NW USA_R64_NE USA_R64_SE USA_R64_SW USA_R64_NW USA_POCI USA_ROCI USA_RMW USA_EYE TOKYO_LAT TOKYO_LON TOKYO_GRADE TOKYO_WIND TOKYO_PRES TOKYO_R50_DIR TOKYO_R50_LONG TOKYO_R50_SHORT TOKYO_R30_DIR TOKYO_R30_LONG TOKYO_R30_SHORT TOKYO_LAND CMA_LAT CMA_LON CMA_CAT CMA_WIND CMA_PRES HKO_LAT HKO_LON HKO_CAT HKO_WIND HKO_PRES NEWDELHI_LAT NEWDELHI_LON NEWDELHI_GRADE NEWDELHI_WIND NEWDELHI_PRES NEWDELHI_CI NEWDELHI_DP NEWDELHI_POCI REUNION_LAT REUNION_LON REUNION_TYPE REUNION_WIND REUNION_PRES REUNION_TNUM REUNION_CI REUNION_RMW REUNION_R34_NE REUNION_R34_SE REUNION_R34_SW REUNION_R34_NW REUNION_R50_NE REUNION_R50_SE REUNION_R50_SW REUNION_R50_NW REUNION_R64_NE REUNION_R64_SE REUNION_R64_SW REUNION_R64_NW BOM_LAT BOM_LON BOM_TYPE BOM_WIND BOM_PRES BOM_TNUM BOM_CI BOM_RMW BOM_R34_NE BOM_R34_SE BOM_R34_SW BOM_R34_NW BOM_R50_NE BOM_R50_SE BOM_R50_SW BOM_R50_NW BOM_R64_NE BOM_R64_SE BOM_R64_SW BOM_R64_NW BOM_ROCI BOM_POCI BOM_EYE BOM_POS_METHOD BOM_PRES_METHOD NADI_LAT NADI_LON NADI_CAT NADI_WIND NADI_PRES WELLINGTON_LAT WELLINGTON_LON WELLINGTON_WIND WELLINGTON_PRES DS824_LAT DS824_LON DS824_STAGE DS824_WIND DS824_PRES TD9636_LAT TD9636_LON TD9636_STAGE TD9636_WIND TD9636_PRES TD9635_LAT TD9635_LON TD9635_WIND TD9635_PRES TD9635_ROCI NEUMANN_LAT NEUMANN_LON NEUMANN_CLASS NEUMANN_WIND NEUMANN_PRES MLC_LAT MLC_LON MLC_CLASS MLC_WIND MLC_PRES USA_GUST BOM_GUST BOM_GUST_PER REUNION_GUST REUNION_GUST_PER USA_SEAHGT USA_SEARAD_NE USA_SEARAD_SE USA_SEARAD_SW USA_SEARAD_NW STORM_SPEED STORM_DIR
1900231N19121 1900 17 WP MM NOT_NAMED 1900-08-19 04:00:00 NR 19.2000 120.800 main 67 67 __________O___ -1 19.2000 120.800 4 11 270
1900231N19121 1900 17 WP MM NOT_NAMED 1900-08-19 06:00:00 NR 19.2015 120.404 main 79 79 __________P___ -1 19.2015 120.404 4 11 270
1900231N19121 1900 17 WP MM NOT_NAMED 1900-08-19 09:00:00 NR 19.2022 119.821 main 122 122 __________P___ -1 19.2022 119.821 4 11 270
1900231N19121 1900 17 WP MM NOT_NAMED 1900-08-19 12:00:00 NR 19.2017 119.267 main 163 172 __________P___ -1 19.2017 119.267 4 10 270
1900231N19121 1900 17 WP MM NOT_NAMED 1900-08-19 15:00:00 NR 19.2004 118.757 main 209 219 __________P___ -1 19.2004 118.757 4 9 270
1900231N19121 1900 17 WP MM NOT_NAMED 1900-08-19 16:00:00 NR 19.2000 118.600 main 228 228 __________O___ -1 19.2000 118.600 4 9 270
1900231N19121 1900 17 WP MM NOT_NAMED 1900-08-19 18:00:00 NR 19.1993 118.307 main 258 258 __________P___ -1 19.1993 118.307 4 8 270
1900231N19121 1900 17 WP MM NOT_NAMED 1900-08-19 21:00:00 NR 19.1987 117.905 main 297 297 __________P___ -1 19.1987 117.905 4 7 270
1900231N19121 1900 17 WP MM NOT_NAMED 1900-08-20 00:00:00 NR 19.1989 117.524 main 338 338 __________P___ -1 19.1989 117.524 4 7 270
1900231N19121 1900 17 WP MM NOT_NAMED 1900-08-20 03:00:00 NR 19.1997 117.136 main 378 378 __________P___ -1 19.1997 117.136 4 7 270
1900231N19121 1900 17 WP MM NOT_NAMED 1900-08-20 04:00:00 NR 19.2000 117.000 main 388 388 __________O___ -1 19.2000 117.000 4 8 269
1900231N19121 1900 17 WP MM NOT_NAMED 1900-08-20 06:00:00 NR 19.1894 116.700 main 402 392 __________P___ -1 19.1894 116.700 4 9 268
1900231N19121 1900 17 WP MM NOT_NAMED 1900-08-20 09:00:00 NR 19.1734 116.232 main 392 375 __________P___ -1 19.1734 116.232 4 9 269
1900231N19121 1900 17 WP MM NOT_NAMED 1900-08-20 12:00:00 NR 19.1682 115.749 main 375 361 __________P___ -1 19.1682 115.749 4 9 271
1900231N19121 1900 17 WP MM NOT_NAMED 1900-08-20 15:00:00 NR 19.1865 115.262 main 361 356 __________P___ -1 19.1865 115.262 4 9 273
1900231N19121 1900 17 WP MM NOT_NAMED 1900-08-20 16:00:00 NR 19.2000 115.100 main 356 339 __________O___ -1 19.2000 115.100 4 9 279
1900231N19121 1900 17 WP MM NOT_NAMED 1900-08-20 18:00:00 NR 19.2539 114.789 main 339 310 __________P___ -1 19.2539 114.789 4 9 282
1900231N19121 1900 17 WP MM NOT_NAMED 1900-08-20 21:00:00 NR 19.3606 114.322 main 310 280 __________P___ -1 19.3606 114.322 4 9 284
1900231N19121 1900 17 WP MM NOT_NAMED 1900-08-21 00:00:00 NR 19.4759 113.850 main 280 251 __________P___ -1 19.4759 113.850 4 9 283
1900231N19121 1900 17 WP MM NOT_NAMED 1900-08-21 03:00:00 NR 19.5749 113.365 main 251 230 __________P___ -1 19.5749 113.365 4 9 281
1900231N19121 1900 17 WP MM NOT_NAMED 1900-08-21 04:00:00 NR 19.6000 113.200 main 230 199 __________O___ -1 19.6000 113.200 4 10 276
1900231N19121 1900 17 WP MM NOT_NAMED 1900-08-21 06:00:00 NR 19.6229 112.851 main 199 136 __________P___ -1 19.6229 112.851 4 10 272
1900231N19121 1900 17 WP MM NOT_NAMED 1900-08-21 09:00:00 NR 19.6320 112.314 main 136 83 __________P___ -1 19.6320 112.314 4 10 270
1900231N19121 1900 17 WP MM NOT_NAMED 1900-08-21 12:00:00 NR 19.6218 111.779 main 83 31 __________P___ -1 19.6218 111.779 4 10 268
1900231N19121 1900 17 WP MM NOT_NAMED 1900-08-21 15:00:00 NR 19.6049 111.264 main 31 10 __________P___ -1 19.6049 111.264 4 10 268
1900231N19121 1900 17 WP MM NOT_NAMED 1900-08-21 16:00:00 NR 19.6000 111.100 main 10 0 __________O___ -1 19.6000 111.100 4 9 269
1900231N19121 1900 17 WP MM NOT_NAMED 1900-08-21 18:00:00 NR 19.5994 110.802 main 0 0 __________P___ -1 19.5994 110.802 4 8 270
1900231N19121 1900 17 WP MM NOT_NAMED 1900-08-21 21:00:00 NR 19.5988 110.380 main 0 0 __________P___ -1 19.5988 110.380 4 8 270
1900231N19121 1900 17 WP MM NOT_NAMED 1900-08-22 00:00:00 NR 19.5990 109.969 main 0 0 __________P___ -1 19.5990 109.969 4 8 270
1900231N19121 1900 17 WP MM NOT_NAMED 1900-08-22 03:00:00 NR 19.5997 109.547 main 0 0 __________P___ -1 19.5997 109.547 4 8 270
1900231N19121 1900 17 WP MM NOT_NAMED 1900-08-22 04:00:00 NR 19.6000 109.400 main 0 0 __________O___ -1 19.6000 109.400 4 9 270
1900231N19121 1900 17 WP MM NOT_NAMED 1900-08-22 06:00:00 NR 19.6027 109.076 main 0 10 __________P___ -1 19.6027 109.076 4 9 270
1900231N19121 1900 17 WP MM NOT_NAMED 1900-08-22 09:00:00 NR 19.6068 108.571 main 24 30 __________P___ -1 19.6068 108.571 4 10 270
1900231N19121 1900 17 WP MM NOT_NAMED 1900-08-22 12:00:00 NR 19.6080 108.059 main 62 71 __________P___ -1 19.6080 108.059 4 10 270
1900231N19121 1900 17 WP MM NOT_NAMED 1900-08-22 15:00:00 NR 19.6034 107.560 main 110 114 __________P___ -1 19.6034 107.560 4 9 269
1900231N19121 1900 17 WP MM NOT_NAMED 1900-08-22 16:00:00 NR 19.6000 107.400 main 114 91 __________O___ -1 19.6000 107.400 4 9 268
1900231N19121 1900 17 WP MM NOT_NAMED 1900-08-22 18:00:00 NR 19.5902 107.091 main 91 68 __________P___ -1 19.5902 107.091 4 8 267
1900231N19121 1900 17 WP MM NOT_NAMED 1900-08-22 21:00:00 NR 19.5688 106.653 main 68 41 __________P___ -1 19.5688 106.653 4 8 267
1900231N19121 1900 17 WP MM NOT_NAMED 1900-08-23 00:00:00 NR 19.5416 106.237 main 41 0 __________P___ -1 19.5416 106.237 4 8 266
1900231N19121 1900 17 WP MM NOT_NAMED 1900-08-23 03:00:00 NR 19.5107 105.833 main 0 0 __________P___ -1 19.5107 105.833 4 8 265
1900231N19121 1900 17 WP MM NOT_NAMED 1900-08-23 04:00:00 NR 19.5000 105.700 main 0 __________O___ -1 19.5000 105.700 7 8 265

Digital Typhoon Data and Search

About IBTrACS Database

This database is a web-friendly format of International Best Track Archive for Climate Stewardship (IBTrACS), a global best track data archive curated by NOAA dating back to 1842.

Updated: 2021-12-06